Time;durP1;ratioP1;P1;durP2;ratioP2;P2;SDS_P1;SDS_P2;PMS_P1;PMS_P2;Temp;Humidity;BMP_temperature;BMP_pressure;BME280_temperature;BME280_humidity;BME280_pressure;Samples;Min_cycle;Max_cycle;Signal;HPM_P1;HPM_P2
2022/01/29 00:01:32;;;;;;;2.83;0.93;;;;;;;6.95;46.72;99457.97;4897103;29;20265;-85
2022/01/29 00:03:58;;;;;;;2.87;1.40;;;;;;;7.06;47.00;99461.06;4898013;29;20193;-83
2022/01/29 00:06:24;;;;;;;4.63;1.30;;;;;;;7.18;46.75;99461.50;4898315;29;20183;-85
2022/01/29 00:08:51;;;;;;;2.43;1.00;;;;;;;6.83;46.84;99464.44;4898099;29;20187;-86
2022/01/29 00:11:17;;;;;;;2.20;1.10;;;;;;;6.90;46.95;99465.06;4897868;29;20675;-90
2022/01/29 00:13:42;;;;;;;1.47;1.07;;;;;;;6.77;46.97;99460.28;4913116;29;20595;-84
2022/01/29 00:16:08;;;;;;;2.40;0.80;;;;;;;7.00;46.51;99476.91;4898086;29;20183;-85
2022/01/29 00:18:35;;;;;;;2.83;1.00;;;;;;;7.06;45.83;99487.13;4898139;29;20200;-85
2022/01/29 00:21:01;;;;;;;1.87;1.10;;;;;;;6.97;45.02;99471.81;4897646;29;20183;-84
2022/01/29 00:23:27;;;;;;;2.57;1.43;;;;;;;6.79;46.40;99478.44;4912724;29;20209;-88
2022/01/29 00:25:52;;;;;;;1.13;0.90;;;;;;;6.84;45.96;99475.72;4897256;29;20215;-90
2022/01/29 00:28:18;;;;;;;1.27;0.60;;;;;;;6.87;45.72;99470.38;4913400;29;20183;-86
2022/01/29 00:30:44;;;;;;;2.10;0.60;;;;;;;6.71;46.29;99463.06;4896769;29;20215;-86
2022/01/29 00:33:12;;;;;;;1.33;0.90;;;;;;;6.88;45.74;99456.47;4897569;29;20176;-86
2022/01/29 00:35:38;;;;;;;1.13;0.83;;;;;;;6.68;46.34;99454.53;4916381;29;20197;-90
2022/01/29 00:38:04;;;;;;;0.53;0.50;;;;;;;6.82;46.04;99444.50;4900393;29;20179;-88
2022/01/29 00:40:31;;;;;;;1.87;0.90;;;;;;;6.95;45.34;99458.81;4916099;29;20258;-86
2022/01/29 00:42:57;;;;;;;2.90;1.93;;;;;;;6.72;45.80;99453.50;4901160;29;20195;-85
2022/01/29 00:45:22;;;;;;;2.03;1.07;;;;;;;6.93;45.51;99451.97;4901138;29;20179;-87
2022/01/29 00:47:47;;;;;;;2.50;1.03;;;;;;;7.00;45.63;99458.66;4900834;29;20643;-87
2022/01/29 00:50:13;;;;;;;1.30;0.73;;;;;;;6.98;46.06;99457.88;4900720;29;20355;-87
2022/01/29 00:52:38;;;;;;;2.80;1.03;;;;;;;6.89;46.16;99463.41;4915745;29;20193;-87
2022/01/29 00:55:09;;;;;;;3.47;0.57;;;;;;;7.11;45.50;99452.19;4899771;29;20270;-86
2022/01/29 00:57:38;;;;;;;8.73;1.20;;;;;;;6.94;46.06;99471.91;4900711;29;20282;-87
2022/01/29 01:00:10;;;;;;;7.57;1.27;;;;;;;6.92;46.14;99477.16;4915439;29;20187;-87
2022/01/29 01:02:35;;;;;;;2.30;1.20;;;;;;;6.96;45.84;99473.56;4901250;29;20666;-87
2022/01/29 01:05:01;;;;;;;2.47;1.07;;;;;;;7.05;45.14;99465.44;4900549;29;20288;-87
2022/01/29 01:07:27;;;;;;;1.83;1.00;;;;;;;6.95;45.40;99478.81;4915301;29;20560;-86
2022/01/29 01:09:52;;;;;;;3.27;1.73;;;;;;;7.08;44.91;99477.50;4900327;29;20653;-87
2022/01/29 01:12:17;;;;;;;1.27;1.00;;;;;;;7.03;45.19;99472.44;4915200;29;20179;-85
2022/01/29 01:14:43;;;;;;;4.87;1.37;;;;;;;7.20;44.64;99464.09;4900654;29;20209;-87
2022/01/29 01:17:08;;;;;;;3.80;1.70;;;;;;;7.01;45.53;99468.19;4900487;29;20202;-86
2022/01/29 01:19:34;;;;;;;2.43;1.10;;;;;;;7.28;44.32;99460.31;4915069;29;20661;-86
2022/01/29 01:22:01;;;;;;;1.17;0.63;;;;;;;7.03;44.48;99472.44;4900247;29;20198;-86
2022/01/29 01:24:26;;;;;;;1.50;0.63;;;;;;;6.97;45.39;99472.63;4899701;29;20657;-88
2022/01/29 01:26:52;;;;;;;2.57;1.10;;;;;;;6.94;45.27;99462.34;4914975;29;20262;-86
2022/01/29 01:29:18;;;;;;;2.57;1.10;;;;;;;6.90;45.11;99475.50;4900223;29;20598;-87
2022/01/29 01:31:45;;;;;;;2.87;1.70;;;;;;;6.96;44.73;99470.09;4900039;29;20218;-87
2022/01/29 01:34:14;;;;;;;2.90;1.30;;;;;;;6.99;45.13;99462.19;4915066;29;20599;-86
2022/01/29 01:36:47;;;;;;;1.10;0.50;;;;;;;6.72;45.27;99467.38;4900035;29;20183;-88
2022/01/29 01:39:16;;;;;;;2.50;1.47;;;;;;;6.63;45.41;99466.84;4914789;29;20175;-88
2022/01/29 01:41:51;;;;;;;3.40;1.37;;;;;;;6.86;44.98;99468.69;4914717;29;20202;-86
2022/01/29 01:44:17;;;;;;;1.83;0.97;;;;;;;6.94;44.49;99459.75;4900113;29;20171;-86
2022/01/29 01:46:43;;;;;;;1.57;0.80;;;;;;;7.19;43.81;99462.38;4913415;29;20186;-87
2022/01/29 01:49:08;;;;;;;3.00;1.47;;;;;;;7.02;44.37;99480.34;4914572;29;20222;-86
2022/01/29 01:51:34;;;;;;;3.40;1.13;;;;;;;6.93;44.12;99484.09;4899962;29;20654;-87
2022/01/29 01:53:59;;;;;;;2.93;1.37;;;;;;;6.51;45.29;99472.41;4899651;29;20183;-87
2022/01/29 01:56:25;;;;;;;3.67;0.70;;;;;;;6.59;45.05;99468.69;4899904;29;20238;-90
2022/01/29 01:58:50;;;;;;;3.20;1.20;;;;;;;6.62;45.34;99475.53;4898832;29;20562;-86
2022/01/29 02:01:16;;;;;;;2.43;0.90;;;;;;;6.54;45.64;99487.94;4899111;29;20174;-86
2022/01/29 02:03:42;;;;;;;3.13;1.60;;;;;;;6.46;45.61;99475.16;4899611;29;20745;-87
2022/01/29 02:06:07;;;;;;;1.57;0.87;;;;;;;6.25;46.49;99486.22;4914368;29;20197;-87
2022/01/29 02:08:33;;;;;;;5.47;1.20;;;;;;;6.34;45.66;99483.31;4914203;29;20538;-86
2022/01/29 02:11:03;;;;;;;3.73;1.50;;;;;;;6.24;46.04;99496.69;4898429;29;20298;-86
2022/01/29 02:13:29;;;;;;;2.57;1.53;;;;;;;6.22;46.68;99486.31;4899921;29;20183;-87
2022/01/29 02:15:55;;;;;;;5.33;2.13;;;;;;;6.33;46.15;99488.59;4899307;29;20545;-88
2022/01/29 02:18:21;;;;;;;2.97;1.63;;;;;;;6.04;47.05;99479.88;4914141;29;20187;-90
2022/01/29 02:20:47;;;;;;;2.03;1.00;;;;;;;6.24;46.74;99481.06;4899442;29;20196;-86
2022/01/29 02:23:12;;;;;;;3.37;1.10;;;;;;;6.11;47.00;99472.75;4898971;29;20191;-91
2022/01/29 02:25:45;;;;;;;5.73;2.43;;;;;;;5.99;46.80;99470.50;4899055;29;20632;-88
2022/01/29 02:28:23;;;;;;;2.73;1.07;;;;;;;6.20;46.39;99482.91;4899356;29;20195;-85
2022/01/29 02:30:59;;;;;;;3.73;1.83;;;;;;;5.89;47.20;99462.13;4899591;29;20290;-90
2022/01/29 02:33:26;;;;;;;2.40;1.10;;;;;;;5.86;46.95;99472.63;4914314;29;20644;-86
2022/01/29 02:35:54;;;;;;;3.03;1.23;;;;;;;5.76;47.19;99471.13;4913681;29;20207;-86
2022/01/29 02:38:21;;;;;;;3.70;1.53;;;;;;;5.64;47.65;99479.25;4898823;29;20185;-88
2022/01/29 02:40:50;;;;;;;3.60;1.57;;;;;;;5.65;47.54;99469.72;4899090;29;20266;-87
2022/01/29 02:43:28;;;;;;;2.27;0.87;;;;;;;5.74;47.68;99457.28;4898804;29;20194;-86
2022/01/29 02:46:04;;;;;;;2.40;1.27;;;;;;;5.62;47.95;99451.59;4899593;29;20506;-85
2022/01/29 02:48:29;;;;;;;3.87;1.67;;;;;;;5.63;47.46;99453.31;4913682;29;20186;-87
2022/01/29 02:50:55;;;;;;;6.60;1.33;;;;;;;5.82;47.54;99451.88;4913707;29;20274;-85
2022/01/29 02:53:26;;;;;;;1.93;1.27;;;;;;;5.68;47.65;99446.22;4913327;29;20221;-87
2022/01/29 02:55:54;;;;;;;1.63;1.00;;;;;;;5.57;48.08;99455.19;4913331;29;20590;-86
2022/01/29 02:58:22;;;;;;;4.90;1.70;;;;;;;5.68;48.09;99454.88;4898206;29;20191;-86
2022/01/29 03:00:48;;;;;;;1.70;1.13;;;;;;;5.45;47.83;99449.47;4898790;29;20741;-86
2022/01/29 03:03:13;;;;;;;2.23;1.07;;;;;;;5.46;47.98;99444.22;4898497;29;20187;-89
2022/01/29 03:05:39;;;;;;;2.93;1.23;;;;;;;5.30;48.18;99449.84;4897826;29;20635;-84
2022/01/29 03:08:05;;;;;;;5.93;2.03;;;;;;;5.28;48.50;99457.72;4897453;29;20200;-88
2022/01/29 03:10:34;;;;;;;4.43;1.77;;;;;;;5.37;47.84;99452.25;4913362;29;20209;-85
2022/01/29 03:13:00;;;;;;;5.97;2.33;;;;;;;5.57;47.30;99455.19;4898271;29;20636;-85
2022/01/29 03:15:25;;;;;;;2.83;1.33;;;;;;;5.58;46.82;99456.03;4898380;29;20263;-86
2022/01/29 03:17:51;;;;;;;4.30;1.50;;;;;;;5.69;46.48;99469.56;4898233;29;20191;-85
2022/01/29 03:20:16;;;;;;;3.50;1.70;;;;;;;5.63;46.42;99476.72;4898206;29;20668;-85
2022/01/29 03:22:42;;;;;;;7.00;1.50;;;;;;;5.73;46.10;99466.03;4898437;29;20536;-84
2022/01/29 03:25:07;;;;;;;7.80;1.60;;;;;;;5.99;45.55;99473.09;4898416;29;20182;-84
2022/01/29 03:27:33;;;;;;;1.90;1.27;;;;;;;6.18;45.29;99482.94;4912908;29;20190;-83
2022/01/29 03:29:58;;;;;;;3.47;1.33;;;;;;;6.21;45.38;99478.56;4898083;29;20656;-84
2022/01/29 03:32:24;;;;;;;2.90;1.03;;;;;;;6.28;45.58;99488.72;4898352;29;20664;-84
2022/01/29 03:34:49;;;;;;;4.77;1.23;;;;;;;6.15;45.57;99484.78;4898306;29;20256;-85
2022/01/29 03:37:15;;;;;;;4.33;1.30;;;;;;;5.94;45.69;99485.41;4913053;29;20218;-85
2022/01/29 03:39:43;;;;;;;2.47;1.30;;;;;;;6.23;45.29;99488.03;4898030;29;20186;-85
2022/01/29 03:42:10;;;;;;;3.80;1.37;;;;;;;6.08;45.33;99489.31;4897958;29;20182;-85
2022/01/29 03:44:35;;;;;;;1.17;0.57;;;;;;;6.17;44.93;99488.19;4898305;29;20186;-85
2022/01/29 03:47:01;;;;;;;1.33;0.83;;;;;;;5.94;45.65;99490.59;4912835;29;20277;-84
2022/01/29 03:49:26;;;;;;;0.70;0.53;;;;;;;5.85;45.28;99485.66;4898206;29;20182;-86
2022/01/29 03:51:52;;;;;;;2.17;0.70;;;;;;;5.95;45.79;99487.09;4897883;29;20203;-87
2022/01/29 03:54:17;;;;;;;3.80;0.70;;;;;;;5.88;45.54;99486.41;4912739;29;20632;-86
2022/01/29 03:56:42;;;;;;;1.57;1.00;;;;;;;5.81;45.86;99484.88;4896769;29;20187;-86
2022/01/29 03:59:08;;;;;;;3.57;0.90;;;;;;;5.73;45.94;99494.63;4898149;29;20201;-86
2022/01/29 04:01:33;;;;;;;1.77;1.10;;;;;;;5.56;46.61;99500.28;4898612;29;20238;-86
2022/01/29 04:03:59;;;;;;;0.50;0.40;;;;;;;5.37;47.00;99500.81;4898076;29;20243;-86
2022/01/29 04:06:25;;;;;;;1.47;0.73;;;;;;;5.30;47.43;99505.28;4898078;29;20260;-87
2022/01/29 04:08:50;;;;;;;2.67;1.53;;;;;;;5.32;47.61;99497.47;4898547;29;20314;-87
2022/01/29 04:11:16;;;;;;;3.60;1.97;;;;;;;5.04;48.17;99499.03;4901492;29;20642;-87
2022/01/29 04:13:45;;;;;;;3.17;1.10;;;;;;;5.19;47.84;99498.69;4901515;29;20750;-87
2022/01/29 04:16:12;;;;;;;1.63;0.63;;;;;;;5.08;48.05;99500.69;4900785;29;20194;-87
2022/01/29 04:18:38;;;;;;;5.30;1.93;;;;;;;5.17;47.79;99505.63;4916149;29;20191;-86
2022/01/29 04:21:04;;;;;;;5.03;1.87;;;;;;;5.31;47.57;99503.56;4900370;29;20193;-86
2022/01/29 04:23:30;;;;;;;2.70;1.87;;;;;;;5.55;47.04;99501.16;4901541;29;20198;-86
2022/01/29 04:25:55;;;;;;;2.47;1.17;;;;;;;5.67;46.89;99505.19;4900294;29;20192;-86
2022/01/29 04:28:24;;;;;;;5.03;1.10;;;;;;;5.63;47.01;99513.97;4901431;29;20314;-86
2022/01/29 04:30:56;;;;;;;4.53;1.50;;;;;;;5.47;47.33;99513.53;4916132;29;20210;-87
2022/01/29 04:33:30;;;;;;;1.87;1.40;;;;;;;5.24;47.87;99518.44;4900166;29;20251;-86
2022/01/29 04:35:59;;;;;;;8.43;1.40;;;;;;;5.20;48.28;99515.97;4901461;29;20169;-86
2022/01/29 04:38:26;;;;;;;3.70;1.17;;;;;;;5.18;48.45;99516.00;4901303;29;20183;-86
2022/01/29 04:40:52;;;;;;;3.30;1.43;;;;;;;5.04;48.90;99520.69;4900947;29;20173;-87
2022/01/29 04:43:18;;;;;;;1.33;0.70;;;;;;;5.27;48.78;99527.91;4901222;29;20203;-88
2022/01/29 04:45:43;;;;;;;3.53;1.07;;;;;;;5.12;49.09;99523.94;4901117;29;20272;-86
2022/01/29 04:48:09;;;;;;;3.13;1.20;;;;;;;4.98;49.58;99526.00;4901364;29;20187;-86
2022/01/29 04:50:34;;;;;;;4.33;1.43;;;;;;;4.93;49.43;99525.25;4901172;29;20283;-85
2022/01/29 04:53:00;;;;;;;3.17;1.70;;;;;;;5.03;49.59;99539.78;4901255;29;20191;-86
2022/01/29 04:55:25;;;;;;;1.90;1.10;;;;;;;4.98;48.97;99546.78;4900749;29;20183;-86
2022/01/29 04:57:51;;;;;;;6.10;1.43;;;;;;;5.09;48.99;99539.59;4900651;29;20241;-86
2022/01/29 05:00:20;;;;;;;4.83;1.20;;;;;;;5.06;48.91;99546.63;4900664;29;20180;-85
2022/01/29 05:02:52;;;;;;;7.23;1.47;;;;;;;5.29;48.65;99546.94;4900916;29;20246;-86
2022/01/29 05:05:18;;;;;;;1.90;1.23;;;;;;;5.23;48.97;99553.13;4901094;29;20177;-86
2022/01/29 05:07:44;;;;;;;3.17;2.07;;;;;;;5.13;49.25;99550.78;4899561;29;20193;-88
2022/01/29 05:10:09;;;;;;;2.80;1.10;;;;;;;5.15;48.83;99544.66;4900263;29;20207;-86
2022/01/29 05:12:50;;;;;;;2.63;1.13;;;;;;;5.18;49.14;99544.59;4900431;29;20601;-86
2022/01/29 05:29:03;;;;;;;3.93;1.43;;;;;;;4.58;51.53;99566.78;4900478;29;20597;-86
2022/01/29 05:31:28;;;;;;;6.27;0.90;;;;;;;4.75;51.01;99564.66;4915359;29;20665;-87
2022/01/29 05:33:54;;;;;;;2.10;1.20;;;;;;;4.79;50.67;99571.50;4900348;29;20190;-90
2022/01/29 05:36:19;;;;;;;1.20;0.87;;;;;;;4.70;51.33;99574.28;4914853;29;20626;-87
2022/01/29 05:38:45;;;;;;;3.60;1.03;;;;;;;4.51;52.18;99580.78;4914714;29;20184;-85
2022/01/29 05:41:11;;;;;;;2.50;1.13;;;;;;;4.53;51.79;99576.41;4899932;29;20176;-86
2022/01/29 05:43:36;;;;;;;2.80;1.57;;;;;;;4.74;51.10;99581.97;4915226;29;20198;-86
2022/01/29 05:46:02;;;;;;;1.90;1.17;;;;;;;4.74;51.56;99584.56;4914679;29;20350;-86
2022/01/29 05:48:27;;;;;;;1.80;1.13;;;;;;;4.68;51.64;99576.06;4899825;29;20198;-88
2022/01/29 05:50:55;;;;;;;3.17;1.20;;;;;;;4.52;51.94;99578.13;4899689;29;20231;-87
2022/01/29 05:53:21;;;;;;;2.90;1.20;;;;;;;4.59;52.06;99574.50;4914976;29;20183;-86
2022/01/29 05:55:48;;;;;;;2.40;1.57;;;;;;;4.64;51.92;99582.22;4899586;29;20215;-86
2022/01/29 05:58:13;;;;;;;2.27;1.27;;;;;;;4.66;51.76;99585.63;4914293;29;20217;-86
2022/01/29 06:00:39;;;;;;;3.80;1.20;;;;;;;4.71;52.29;99583.78;4899606;29;20280;-85
2022/01/29 06:03:09;;;;;;;3.23;1.47;;;;;;;4.58;52.42;99579.75;4899544;29;20635;-85
2022/01/29 06:05:35;;;;;;;1.43;1.20;;;;;;;4.81;51.97;99590.50;4914241;29;20182;-86
2022/01/29 06:08:01;;;;;;;3.40;1.27;;;;;;;4.75;51.88;99596.66;4900302;29;20183;-86
2022/01/29 06:10:27;;;;;;;3.90;2.40;;;;;;;4.88;51.92;99597.25;4899152;29;20207;-86
2022/01/29 06:13:03;;;;;;;1.87;1.43;;;;;;;4.94;51.84;99604.91;4899365;29;20174;-85
2022/01/29 06:15:31;;;;;;;3.13;1.47;;;;;;;5.17;50.92;99600.03;4899566;29;20225;-86
2022/01/29 06:17:56;;;;;;;5.50;2.17;;;;;;;5.42;50.02;99606.34;4899276;29;20214;-85
2022/01/29 06:20:22;;;;;;;5.83;1.80;;;;;;;5.68;49.96;99615.25;4899502;29;20212;-85
2022/01/29 06:22:48;;;;;;;2.07;1.30;;;;;;;5.69;49.31;99617.81;4898199;29;20184;-86
2022/01/29 06:25:14;;;;;;;7.97;1.47;;;;;;;5.84;48.71;99611.38;4913880;29;20189;-85
2022/01/29 06:27:39;;;;;;;6.30;2.13;;;;;;;5.72;48.95;99624.69;4899316;29;20252;-86
2022/01/29 06:30:05;;;;;;;2.30;1.47;;;;;;;5.64;49.08;99627.47;4899116;29;20341;-86
2022/01/29 06:32:31;;;;;;;3.70;1.63;;;;;;;5.46;50.17;99623.59;4898319;29;20269;-86
2022/01/29 06:34:56;;;;;;;3.20;1.27;;;;;;;5.46;50.18;99631.41;4899464;29;20279;-86
2022/01/29 06:37:22;;;;;;;2.67;2.03;;;;;;;5.47;49.68;99622.72;4898859;29;20187;-87
2022/01/29 06:39:47;;;;;;;1.30;0.97;;;;;;;5.48;49.94;99633.94;4899115;29;20655;-85
2022/01/29 06:42:13;;;;;;;2.23;1.07;;;;;;;5.54;50.13;99641.59;4913573;29;20559;-85
2022/01/29 06:44:38;;;;;;;2.53;1.57;;;;;;;5.51;49.96;99639.94;4913777;29;20311;-86
2022/01/29 06:47:04;;;;;;;4.13;1.20;;;;;;;5.57;50.08;99651.94;4898971;29;20183;-86
2022/01/29 06:49:29;;;;;;;2.07;1.40;;;;;;;5.77;49.23;99646.22;4913500;29;20322;-85
2022/01/29 06:51:55;;;;;;;4.50;1.57;;;;;;;5.86;48.94;99644.31;4898630;29;20567;-86
2022/01/29 06:54:20;;;;;;;5.43;1.53;;;;;;;5.72;49.02;99651.56;4913439;29;20188;-86
2022/01/29 06:56:45;;;;;;;2.17;1.17;;;;;;;5.82;49.03;99652.16;4898690;29;20219;-85
2022/01/29 06:59:11;;;;;;;2.33;1.13;;;;;;;5.92;48.56;99654.53;4898586;29;20169;-86
2022/01/29 07:01:37;;;;;;;4.87;1.07;;;;;;;5.73;48.69;99658.47;4897989;29;20183;-85
2022/01/29 07:04:03;;;;;;;2.17;1.20;;;;;;;5.78;49.28;99663.56;4898389;29;20193;-85
2022/01/29 07:06:28;;;;;;;3.43;1.43;;;;;;;5.95;48.64;99661.41;4898348;29;20183;-86
2022/01/29 07:08:54;;;;;;;3.13;1.10;;;;;;;6.02;48.55;99660.38;4898659;29;20226;-86
2022/01/29 07:11:22;;;;;;;2.97;1.77;;;;;;;5.97;48.71;99672.66;4897436;29;20202;-86
2022/01/29 07:13:48;;;;;;;2.57;1.07;;;;;;;5.62;49.68;99664.81;4898034;29;20279;-86
2022/01/29 07:16:13;;;;;;;2.27;1.10;;;;;;;5.82;49.46;99667.78;4897938;29;20201;-86
2022/01/29 07:18:39;;;;;;;2.63;1.13;;;;;;;5.83;49.76;99672.09;4896812;29;20248;-86
2022/01/29 07:21:04;;;;;;;3.33;2.13;;;;;;;6.00;48.78;99667.38;4897591;29;20197;-85
2022/01/29 07:23:29;;;;;;;3.83;1.80;;;;;;;6.12;48.93;99667.91;4912476;29;20280;-86
2022/01/29 07:25:55;;;;;;;2.13;1.37;;;;;;;6.25;48.90;99663.22;4912559;29;20656;-86
2022/01/29 07:28:20;;;;;;;3.73;1.90;;;;;;;6.25;48.32;99664.97;4897930;29;20205;-85
2022/01/29 07:30:46;;;;;;;7.93;1.83;;;;;;;6.29;48.77;99664.84;4912274;29;20350;-86
2022/01/29 07:33:11;;;;;;;3.83;1.80;;;;;;;6.34;48.56;99655.16;4898628;29;20261;-86
2022/01/29 07:35:37;;;;;;;3.63;1.50;;;;;;;6.40;48.98;99654.97;4897636;29;20649;-86
2022/01/29 07:38:02;;;;;;;3.13;2.13;;;;;;;6.80;47.92;99655.59;4898041;29;20186;-87
2022/01/29 07:40:28;;;;;;;3.80;1.47;;;;;;;6.72;47.68;99654.94;4897406;29;20194;-84
2022/01/29 07:42:53;;;;;;;2.40;1.40;;;;;;;6.61;47.94;99671.75;4898467;29;20198;-86
2022/01/29 07:45:18;;;;;;;3.83;1.67;;;;;;;6.90;47.45;99665.72;4901763;29;20210;-86
2022/01/29 07:47:44;;;;;;;3.40;1.63;;;;;;;6.99;47.26;99662.84;4917490;29;20193;-85
2022/01/29 07:50:09;;;;;;;4.10;2.20;;;;;;;6.83;47.40;99672.88;4901804;29;20226;-86
2022/01/29 07:52:35;;;;;;;4.20;1.73;;;;;;;6.91;47.15;99676.13;4901527;29;20191;-85
2022/01/29 07:55:00;;;;;;;2.57;1.60;;;;;;;6.91;47.05;99664.84;4901249;29;20542;-86
2022/01/29 07:57:26;;;;;;;2.43;1.33;;;;;;;6.66;47.37;99672.47;4901776;29;20523;-86
2022/01/29 07:59:51;;;;;;;3.23;1.10;;;;;;;6.61;47.96;99672.63;4901643;29;20202;-85
2022/01/29 08:02:16;;;;;;;3.53;1.73;;;;;;;6.88;47.57;99677.94;4901028;29;20208;-85
2022/01/29 08:04:42;;;;;;;3.30;2.03;;;;;;;6.98;46.53;99682.84;4901498;29;20265;-87
2022/01/29 08:07:07;;;;;;;2.90;1.53;;;;;;;6.63;48.47;99681.25;4901590;29;20253;-85
2022/01/29 08:09:32;;;;;;;2.00;1.33;;;;;;;6.58;48.15;99687.47;4901334;29;20270;-86
2022/01/29 08:11:58;;;;;;;8.87;3.03;;;;;;;6.37;48.78;99686.31;4915736;29;20298;-87
2022/01/29 08:14:23;;;;;;;5.63;2.20;;;;;;;6.67;48.85;99693.31;4915922;29;20190;-86
2022/01/29 08:16:49;;;;;;;2.67;1.73;;;;;;;7.08;47.56;99691.25;4901363;29;20214;-86
2022/01/29 08:19:14;;;;;;;5.47;1.50;;;;;;;7.17;47.88;99697.06;4901166;29;20571;-85
2022/01/29 08:21:39;;;;;;;4.67;1.57;;;;;;;7.00;47.84;99698.44;4901279;29;20277;-84
2022/01/29 08:24:06;;;;;;;3.30;2.30;;;;;;;7.13;47.55;99698.03;4915647;29;20194;-85
2022/01/29 08:26:32;;;;;;;7.40;3.17;;;;;;;7.15;47.49;99695.41;4901033;29;20582;-85
2022/01/29 08:28:57;;;;;;;5.03;2.63;;;;;;;7.36;47.47;99700.78;4915450;29;20190;-86
2022/01/29 08:31:23;;;;;;;3.00;1.33;;;;;;;7.48;46.78;99696.09;4900987;29;20294;-86
2022/01/29 08:33:48;;;;;;;4.90;2.17;;;;;;;7.37;47.29;99702.50;4916003;29;20195;-85
2022/01/29 08:36:13;;;;;;;4.30;2.07;;;;;;;7.55;47.40;99701.06;4900802;29;20254;-85
2022/01/29 08:38:39;;;;;;;2.97;2.00;;;;;;;7.75;47.16;99709.16;4900889;29;20273;-85
2022/01/29 08:41:04;;;;;;;7.50;2.63;;;;;;;7.86;46.30;99706.19;4915506;29;20203;-86
2022/01/29 08:43:32;;;;;;;5.23;2.03;;;;;;;7.78;46.93;99698.59;4915806;29;20641;-88
2022/01/29 08:45:58;;;;;;;3.20;1.80;;;;;;;7.78;46.40;99711.63;4899442;29;20558;-86
2022/01/29 08:48:24;;;;;;;8.60;2.50;;;;;;;7.60;46.65;99714.81;4900643;29;20198;-86
2022/01/29 08:50:49;;;;;;;4.20;2.03;;;;;;;7.81;46.76;99715.91;4915360;29;20718;-85
2022/01/29 08:53:17;;;;;;;6.83;1.90;;;;;;;8.17;46.03;99711.25;4915365;29;20608;-85
2022/01/29 08:55:42;;;;;;;7.47;2.97;;;;;;;8.05;46.39;99715.09;4900024;29;20258;-86
2022/01/29 08:58:08;;;;;;;10.27;2.77;;;;;;;7.98;46.44;99718.84;4915478;29;20302;-86
2022/01/29 09:00:37;;;;;;;8.93;2.80;;;;;;;7.86;46.37;99717.47;4900597;29;20190;-87
2022/01/29 09:03:03;;;;;;;8.33;3.10;;;;;;;7.97;45.65;99715.34;4914931;29;20686;-86
2022/01/29 09:05:28;;;;;;;9.07;3.20;;;;;;;8.33;45.70;99720.31;4900572;29;20255;-86
2022/01/29 09:07:54;;;;;;;9.20;2.33;;;;;;;8.34;45.64;99729.81;4900820;29;20630;-86
2022/01/29 09:10:19;;;;;;;3.67;1.77;;;;;;;8.26;45.67;99732.66;4914777;29;20210;-86
2022/01/29 09:12:45;;;;;;;5.73;2.27;;;;;;;8.34;45.26;99730.69;4915237;29;20199;-85
2022/01/29 09:15:10;;;;;;;4.40;1.97;;;;;;;8.39;45.19;99728.78;4899801;29;20642;-87
2022/01/29 09:17:39;;;;;;;4.20;2.50;;;;;;;8.52;45.34;99723.97;4900195;29;20187;-86
2022/01/29 09:20:06;;;;;;;5.13;2.50;;;;;;;8.66;44.81;99721.72;4900283;29;20184;-86
2022/01/29 09:22:31;;;;;;;6.27;2.60;;;;;;;8.68;45.42;99721.66;4914612;29;20222;-86
2022/01/29 09:24:57;;;;;;;4.70;2.03;;;;;;;8.65;45.21;99725.25;4899953;29;20639;-86
2022/01/29 09:27:22;;;;;;;4.27;1.73;;;;;;;8.74;44.51;99714.47;4915028;29;20599;-87
2022/01/29 09:29:48;;;;;;;7.33;2.60;;;;;;;8.76;45.31;99723.09;4900002;29;20642;-86
2022/01/29 09:32:13;;;;;;;4.33;2.40;;;;;;;8.73;44.73;99715.38;4914493;29;20222;-87
2022/01/29 09:34:38;;;;;;;3.80;2.13;;;;;;;8.91;45.14;99717.31;4898459;29;20293;-86
2022/01/29 09:37:04;;;;;;;3.47;2.27;;;;;;;9.35;44.03;99710.44;4899742;29;20268;-86
2022/01/29 09:39:29;;;;;;;6.80;3.33;;;;;;;9.41;44.27;99706.75;4899748;29;20192;-87
2022/01/29 09:41:55;;;;;;;4.10;1.80;;;;;;;9.43;43.40;99702.28;4900234;29;20186;-87
2022/01/29 09:44:22;;;;;;;3.90;1.93;;;;;;;9.41;43.38;99699.72;4914528;29;20250;-86
2022/01/29 09:46:50;;;;;;;9.13;2.67;;;;;;;9.43;43.69;99694.44;4914325;29;20187;-87
2022/01/29 09:49:18;;;;;;;7.30;2.80;;;;;;;9.42;43.22;99692.72;4914214;29;20183;-86
2022/01/29 09:51:43;;;;;;;6.13;2.77;;;;;;;9.50;43.63;99702.00;4914548;29;20207;-87
2022/01/29 09:54:10;;;;;;;5.77;2.33;;;;;;;9.65;44.01;99711.00;4898854;29;20202;-87
2022/01/29 09:56:35;;;;;;;6.77;3.87;;;;;;;10.00;43.38;99702.59;4906433;29;20321;-86
2022/01/29 09:59:01;;;;;;;4.37;2.37;;;;;;;10.37;42.59;99705.41;4899658;29;20194;-86
2022/01/29 10:01:27;;;;;;;10.20;2.63;;;;;;;10.19;42.35;99694.84;4899458;29;20179;-87
2022/01/29 10:04:05;;;;;;;4.30;2.23;;;;;;;10.40;42.19;99697.38;4899284;29;20626;-88
2022/01/29 10:06:31;;;;;;;5.50;2.57;;;;;;;10.55;42.15;99701.13;4897918;29;20190;-87
2022/01/29 10:08:57;;;;;;;3.60;1.93;;;;;;;10.62;41.54;99691.22;4898099;29;20190;-88
2022/01/29 10:11:26;;;;;;;3.83;2.13;;;;;;;10.53;41.89;99686.38;4897670;29;20785;-87
2022/01/29 10:13:57;;;;;;;5.87;2.67;;;;;;;10.58;41.98;99673.94;4898645;29;20187;-87
2022/01/29 10:16:27;;;;;;;6.57;3.13;;;;;;;10.53;42.43;99682.00;4898328;29;20193;-87
2022/01/29 10:19:13;;;;;;;6.70;2.33;;;;;;;10.72;41.01;99690.75;4914574;29;20610;-88
2022/01/29 10:21:47;;;;;;;4.70;2.20;;;;;;;10.76;40.98;99686.22;4898722;29;20258;-93
2022/01/29 10:24:18;;;;;;;6.53;3.13;;;;;;;10.61;41.06;99685.16;4899083;29;20187;-89
2022/01/29 10:26:49;;;;;;;5.80;2.80;;;;;;;10.41;42.05;99683.38;4898022;29;20650;-87
2022/01/29 10:29:19;;;;;;;7.80;2.43;;;;;;;10.67;41.51;99679.59;4899204;29;20214;-86
2022/01/29 10:31:50;;;;;;;6.90;3.07;;;;;;;10.71;40.54;99680.34;4893843;29;20574;-89
2022/01/29 10:34:27;;;;;;;4.67;2.27;;;;;;;10.82;40.38;99680.72;4899465;29;20696;-87
2022/01/29 10:37:19;;;;;;;4.23;1.93;;;;;;;10.65;41.20;99683.22;4898889;29;20242;-86
2022/01/29 10:39:48;;;;;;;5.40;3.00;;;;;;;10.54;41.39;99688.06;4898702;29;20183;-87
2022/01/29 10:42:16;;;;;;;7.13;2.20;;;;;;;10.48;40.84;99689.22;4913538;29;20532;-87
2022/01/29 10:44:47;;;;;;;6.30;2.20;;;;;;;10.83;41.28;99685.88;4898573;29;20175;-90
2022/01/29 10:47:14;;;;;;;14.13;2.90;;;;;;;11.03;41.38;99680.56;4899116;29;20634;-87
2022/01/29 10:49:48;;;;;;;7.00;2.77;;;;;;;11.02;41.00;99697.25;4887360;29;20192;-87
2022/01/29 10:52:17;;;;;;;5.63;2.90;;;;;;;10.95;39.85;99692.34;4879960;29;20203;-88
2022/01/29 10:54:44;;;;;;;5.80;2.70;;;;;;;11.05;39.41;99681.38;4894642;29;20188;-88
2022/01/29 10:57:11;;;;;;;6.93;2.53;;;;;;;11.15;39.56;99686.19;4883437;29;20201;-88
2022/01/29 10:59:46;;;;;;;6.67;2.73;;;;;;;11.31;39.50;99677.53;4912515;29;20194;-87
2022/01/29 11:02:12;;;;;;;6.73;2.20;;;;;;;11.48;38.76;99690.72;4896753;29;20178;-87
2022/01/29 11:04:40;;;;;;;4.60;2.13;;;;;;;11.23;39.02;99677.03;4896331;29;20195;-86
2022/01/29 11:07:13;;;;;;;4.70;2.10;;;;;;;11.04;39.09;99677.03;4898300;29;20187;-87
2022/01/29 11:09:43;;;;;;;3.77;1.93;;;;;;;11.09;39.67;99674.19;4913358;29;20207;-87
2022/01/29 11:12:11;;;;;;;3.60;1.80;;;;;;;11.31;39.00;99681.94;4898808;29;20195;-87
2022/01/29 11:14:37;;;;;;;6.03;3.07;;;;;;;11.55;38.26;99681.63;4913093;29;20274;-87
2022/01/29 11:17:03;;;;;;;5.13;2.27;;;;;;;11.45;36.99;99677.72;4913600;29;20647;-88
2022/01/29 11:19:30;;;;;;;3.60;1.90;;;;;;;11.47;37.42;99675.91;4898017;29;20186;-88
2022/01/29 11:21:59;;;;;;;3.97;1.80;;;;;;;11.23;37.79;99678.81;4897368;29;20581;-88
2022/01/29 11:24:27;;;;;;;4.70;2.07;;;;;;;11.24;39.01;99683.97;4897349;29;20277;-88
2022/01/29 11:26:52;;;;;;;4.97;2.03;;;;;;;11.33;38.36;99683.56;4897981;29;20187;-88
2022/01/29 11:29:23;;;;;;;5.07;2.17;;;;;;;11.48;38.29;99681.97;4897764;29;20182;-88
2022/01/29 11:31:48;;;;;;;6.07;2.93;;;;;;;11.51;39.13;99682.69;4896889;29;20653;-87
2022/01/29 11:34:14;;;;;;;4.47;2.43;;;;;;;11.82;37.90;99683.88;4889586;29;20195;-88
2022/01/29 11:36:48;;;;;;;4.93;1.70;;;;;;;11.69;37.88;99688.84;4898546;29;20270;-89
2022/01/29 11:39:28;;;;;;;2.57;1.13;;;;;;;11.08;37.41;99689.06;4912721;29;20636;-88
2022/01/29 11:42:12;;;;;;;4.60;2.00;;;;;;;11.05;37.73;99686.63;4898544;29;20170;-87
2022/01/29 11:44:46;;;;;;;4.73;2.17;;;;;;;11.03;38.19;99677.94;4897984;29;20641;-88
2022/01/29 11:47:25;;;;;;;2.93;1.73;;;;;;;10.89;38.39;99680.38;4898220;29;20163;-87
2022/01/29 11:49:52;;;;;;;5.03;1.80;;;;;;;11.29;38.22;99674.16;4896977;29;20234;-88
2022/01/29 11:52:22;;;;;;;4.90;2.70;;;;;;;11.33;38.63;99674.84;4896865;29;20875;-88
2022/01/29 11:54:58;;;;;;;4.33;2.17;;;;;;;11.52;38.18;99663.41;4898429;29;20269;-88